sensor_id;sensor_type;location;lat;lon;timestamp;P1;durP1;ratioP1;P2;durP2;ratioP2
11596;SDS011;5854;48.072;16.286;2023-09-07T00:01:59;1.77;;;1.63;;
11596;SDS011;5854;48.072;16.286;2023-09-07T00:04:26;1.70;;;1.60;;
11596;SDS011;5854;48.072;16.286;2023-09-07T00:06:53;1.77;;;1.65;;
11596;SDS011;5854;48.072;16.286;2023-09-07T00:09:21;2.03;;;1.65;;
11596;SDS011;5854;48.072;16.286;2023-09-07T00:11:49;1.45;;;1.30;;
11596;SDS011;5854;48.072;16.286;2023-09-07T00:14:19;2.15;;;1.77;;
11596;SDS011;5854;48.072;16.286;2023-09-07T00:16:46;2.13;;;1.50;;
11596;SDS011;5854;48.072;16.286;2023-09-07T00:19:13;2.35;;;1.65;;
11596;SDS011;5854;48.072;16.286;2023-09-07T00:21:40;1.75;;;1.48;;
11596;SDS011;5854;48.072;16.286;2023-09-07T00:24:07;3.42;;;1.60;;
11596;SDS011;5854;48.072;16.286;2023-09-07T00:26:35;1.95;;;1.85;;
11596;SDS011;5854;48.072;16.286;2023-09-07T00:29:02;2.00;;;1.70;;
11596;SDS011;5854;48.072;16.286;2023-09-07T00:31:32;1.70;;;1.60;;
11596;SDS011;5854;48.072;16.286;2023-09-07T00:34:00;1.48;;;1.38;;
11596;SDS011;5854;48.072;16.286;2023-09-07T00:36:27;1.92;;;1.77;;
11596;SDS011;5854;48.072;16.286;2023-09-07T00:38:55;1.83;;;1.40;;
11596;SDS011;5854;48.072;16.286;2023-09-07T00:41:22;1.90;;;1.70;;
11596;SDS011;5854;48.072;16.286;2023-09-07T00:43:49;1.90;;;1.80;;
11596;SDS011;5854;48.072;16.286;2023-09-07T00:46:16;3.17;;;1.58;;
11596;SDS011;5854;48.072;16.286;2023-09-07T00:48:45;2.13;;;1.70;;
11596;SDS011;5854;48.072;16.286;2023-09-07T00:51:12;1.50;;;1.40;;
11596;SDS011;5854;48.072;16.286;2023-09-07T00:53:39;1.55;;;1.45;;
11596;SDS011;5854;48.072;16.286;2023-09-07T00:56:07;2.17;;;1.98;;
11596;SDS011;5854;48.072;16.286;2023-09-07T00:58:34;2.30;;;2.10;;
11596;SDS011;5854;48.072;16.286;2023-09-07T01:01:02;2.25;;;1.75;;
11596;SDS011;5854;48.072;16.286;2023-09-07T01:03:29;1.83;;;1.70;;
11596;SDS011;5854;48.072;16.286;2023-09-07T01:06:01;2.13;;;1.92;;
11596;SDS011;5854;48.072;16.286;2023-09-07T01:08:35;2.03;;;1.92;;
11596;SDS011;5854;48.072;16.286;2023-09-07T01:11:12;2.00;;;1.60;;
11596;SDS011;5854;48.072;16.286;2023-09-07T01:13:40;1.75;;;1.65;;
11596;SDS011;5854;48.072;16.286;2023-09-07T01:16:08;1.92;;;1.83;;
11596;SDS011;5854;48.072;16.286;2023-09-07T01:18:37;2.38;;;1.70;;
11596;SDS011;5854;48.072;16.286;2023-09-07T01:21:06;3.25;;;2.10;;
11596;SDS011;5854;48.072;16.286;2023-09-07T01:23:37;7.45;;;2.38;;
11596;SDS011;5854;48.072;16.286;2023-09-07T01:26:07;1.73;;;1.63;;
11596;SDS011;5854;48.072;16.286;2023-09-07T01:28:36;1.85;;;1.75;;
11596;SDS011;5854;48.072;16.286;2023-09-07T01:31:03;2.08;;;1.88;;
11596;SDS011;5854;48.072;16.286;2023-09-07T01:33:31;3.40;;;2.17;;
11596;SDS011;5854;48.072;16.286;2023-09-07T01:35:58;2.13;;;1.60;;
11596;SDS011;5854;48.072;16.286;2023-09-07T01:38:26;1.92;;;1.80;;
11596;SDS011;5854;48.072;16.286;2023-09-07T01:40:56;2.30;;;2.10;;
11596;SDS011;5854;48.072;16.286;2023-09-07T01:43:23;1.88;;;1.77;;
11596;SDS011;5854;48.072;16.286;2023-09-07T01:45:51;4.65;;;2.05;;
11596;SDS011;5854;48.072;16.286;2023-09-07T01:48:18;2.30;;;2.08;;
11596;SDS011;5854;48.072;16.286;2023-09-07T01:50:46;1.63;;;1.52;;
11596;SDS011;5854;48.072;16.286;2023-09-07T01:53:14;2.50;;;1.70;;
11596;SDS011;5854;48.072;16.286;2023-09-07T01:55:41;2.05;;;1.85;;
11596;SDS011;5854;48.072;16.286;2023-09-07T01:58:10;2.97;;;1.60;;
11596;SDS011;5854;48.072;16.286;2023-09-07T02:00:37;2.97;;;1.90;;
11596;SDS011;5854;48.072;16.286;2023-09-07T02:03:05;2.55;;;2.35;;
11596;SDS011;5854;48.072;16.286;2023-09-07T02:05:32;2.10;;;1.70;;
11596;SDS011;5854;48.072;16.286;2023-09-07T02:08:00;1.85;;;1.60;;
11596;SDS011;5854;48.072;16.286;2023-09-07T02:10:27;7.38;;;1.85;;
11596;SDS011;5854;48.072;16.286;2023-09-07T02:12:54;2.40;;;2.00;;
11596;SDS011;5854;48.072;16.286;2023-09-07T02:15:24;1.80;;;1.65;;
11596;SDS011;5854;48.072;16.286;2023-09-07T02:17:51;2.08;;;1.88;;
11596;SDS011;5854;48.072;16.286;2023-09-07T02:20:18;2.00;;;1.90;;
11596;SDS011;5854;48.072;16.286;2023-09-07T02:22:45;1.48;;;1.38;;
11596;SDS011;5854;48.072;16.286;2023-09-07T02:25:14;2.05;;;1.80;;
11596;SDS011;5854;48.072;16.286;2023-09-07T02:27:41;3.17;;;1.48;;
11596;SDS011;5854;48.072;16.286;2023-09-07T02:30:08;2.72;;;1.83;;
11596;SDS011;5854;48.072;16.286;2023-09-07T02:32:37;1.80;;;1.70;;
11596;SDS011;5854;48.072;16.286;2023-09-07T02:35:05;1.85;;;1.75;;
11596;SDS011;5854;48.072;16.286;2023-09-07T02:37:33;1.80;;;1.70;;
11596;SDS011;5854;48.072;16.286;2023-09-07T02:40:01;2.35;;;1.92;;
11596;SDS011;5854;48.072;16.286;2023-09-07T02:42:32;1.67;;;1.58;;
11596;SDS011;5854;48.072;16.286;2023-09-07T02:44:59;2.13;;;1.85;;
11596;SDS011;5854;48.072;16.286;2023-09-07T02:47:26;2.42;;;1.90;;
11596;SDS011;5854;48.072;16.286;2023-09-07T02:49:55;4.60;;;1.85;;
11596;SDS011;5854;48.072;16.286;2023-09-07T02:52:22;3.33;;;1.92;;
11596;SDS011;5854;48.072;16.286;2023-09-07T02:54:49;2.17;;;2.00;;
11596;SDS011;5854;48.072;16.286;2023-09-07T02:57:16;2.17;;;2.08;;
11596;SDS011;5854;48.072;16.286;2023-09-07T02:59:43;3.70;;;1.95;;
11596;SDS011;5854;48.072;16.286;2023-09-07T03:02:10;2.25;;;2.03;;
11596;SDS011;5854;48.072;16.286;2023-09-07T03:04:37;2.25;;;2.15;;
11596;SDS011;5854;48.072;16.286;2023-09-07T03:07:05;2.72;;;2.53;;
11596;SDS011;5854;48.072;16.286;2023-09-07T03:09:34;2.17;;;1.90;;
11596;SDS011;5854;48.072;16.286;2023-09-07T03:12:01;2.40;;;2.05;;
11596;SDS011;5854;48.072;16.286;2023-09-07T03:14:29;3.60;;;2.55;;
11596;SDS011;5854;48.072;16.286;2023-09-07T03:16:56;5.00;;;2.42;;
11596;SDS011;5854;48.072;16.286;2023-09-07T03:19:23;3.53;;;2.47;;
11596;SDS011;5854;48.072;16.286;2023-09-07T03:21:50;2.90;;;2.42;;
11596;SDS011;5854;48.072;16.286;2023-09-07T03:24:18;2.15;;;1.95;;
11596;SDS011;5854;48.072;16.286;2023-09-07T03:26:45;3.22;;;2.83;;
11596;SDS011;5854;48.072;16.286;2023-09-07T03:29:12;3.15;;;2.00;;
11596;SDS011;5854;48.072;16.286;2023-09-07T03:31:39;2.65;;;2.45;;
11596;SDS011;5854;48.072;16.286;2023-09-07T03:34:07;3.38;;;2.40;;
11596;SDS011;5854;48.072;16.286;2023-09-07T03:36:34;4.38;;;2.47;;
11596;SDS011;5854;48.072;16.286;2023-09-07T03:39:01;2.13;;;1.92;;
11596;SDS011;5854;48.072;16.286;2023-09-07T03:41:34;3.05;;;2.55;;
11596;SDS011;5854;48.072;16.286;2023-09-07T03:44:01;3.47;;;2.15;;
11596;SDS011;5854;48.072;16.286;2023-09-07T03:46:28;2.47;;;2.28;;
11596;SDS011;5854;48.072;16.286;2023-09-07T03:48:55;2.20;;;1.90;;
11596;SDS011;5854;48.072;16.286;2023-09-07T03:51:22;2.53;;;2.25;;
11596;SDS011;5854;48.072;16.286;2023-09-07T03:53:49;2.40;;;2.20;;
11596;SDS011;5854;48.072;16.286;2023-09-07T03:56:16;2.67;;;2.47;;
11596;SDS011;5854;48.072;16.286;2023-09-07T03:58:45;2.97;;;1.98;;
11596;SDS011;5854;48.072;16.286;2023-09-07T04:01:12;2.45;;;2.25;;
11596;SDS011;5854;48.072;16.286;2023-09-07T04:03:39;2.80;;;2.60;;
11596;SDS011;5854;48.072;16.286;2023-09-07T04:06:06;2.30;;;2.10;;
11596;SDS011;5854;48.072;16.286;2023-09-07T04:08:33;3.30;;;1.85;;
11596;SDS011;5854;48.072;16.286;2023-09-07T04:11:03;3.47;;;2.28;;
11596;SDS011;5854;48.072;16.286;2023-09-07T04:16:08;3.47;;;2.28;;
11596;SDS011;5854;48.072;16.286;2023-09-07T04:18:35;1.90;;;1.70;;
11596;SDS011;5854;48.072;16.286;2023-09-07T04:21:06;2.63;;;2.10;;
11596;SDS011;5854;48.072;16.286;2023-09-07T04:23:34;3.17;;;2.50;;
11596;SDS011;5854;48.072;16.286;2023-09-07T04:26:05;2.63;;;2.30;;
11596;SDS011;5854;48.072;16.286;2023-09-07T04:28:34;1.92;;;1.83;;
11596;SDS011;5854;48.072;16.286;2023-09-07T04:31:01;2.50;;;2.30;;
11596;SDS011;5854;48.072;16.286;2023-09-07T04:33:31;2.05;;;1.85;;
11596;SDS011;5854;48.072;16.286;2023-09-07T04:36:06;3.40;;;1.92;;
11596;SDS011;5854;48.072;16.286;2023-09-07T04:38:35;2.60;;;2.40;;
11596;SDS011;5854;48.072;16.286;2023-09-07T04:41:05;4.40;;;1.98;;
11596;SDS011;5854;48.072;16.286;2023-09-07T04:43:33;1.63;;;1.52;;
11596;SDS011;5854;48.072;16.286;2023-09-07T04:46:01;2.08;;;1.88;;
11596;SDS011;5854;48.072;16.286;2023-09-07T04:48:28;2.80;;;1.75;;
11596;SDS011;5854;48.072;16.286;2023-09-07T04:50:59;2.47;;;1.75;;
11596;SDS011;5854;48.072;16.286;2023-09-07T04:53:27;1.75;;;1.65;;
11596;SDS011;5854;48.072;16.286;2023-09-07T04:55:55;1.77;;;1.67;;
11596;SDS011;5854;48.072;16.286;2023-09-07T04:58:22;1.75;;;1.65;;
11596;SDS011;5854;48.072;16.286;2023-09-07T05:00:51;2.33;;;2.03;;
11596;SDS011;5854;48.072;16.286;2023-09-07T05:03:18;1.70;;;1.60;;
11596;SDS011;5854;48.072;16.286;2023-09-07T05:05:50;2.35;;;2.05;;
11596;SDS011;5854;48.072;16.286;2023-09-07T05:08:21;1.85;;;1.75;;
11596;SDS011;5854;48.072;16.286;2023-09-07T05:10:54;2.38;;;2.15;;
11596;SDS011;5854;48.072;16.286;2023-09-07T05:13:23;2.20;;;1.88;;
11596;SDS011;5854;48.072;16.286;2023-09-07T05:15:50;3.50;;;1.77;;
11596;SDS011;5854;48.072;16.286;2023-09-07T05:18:18;2.70;;;2.28;;
11596;SDS011;5854;48.072;16.286;2023-09-07T05:20:47;7.97;;;2.22;;
11596;SDS011;5854;48.072;16.286;2023-09-07T05:23:16;2.63;;;2.42;;
11596;SDS011;5854;48.072;16.286;2023-09-07T05:25:45;9.13;;;2.65;;
11596;SDS011;5854;48.072;16.286;2023-09-07T05:28:14;3.15;;;2.83;;
11596;SDS011;5854;48.072;16.286;2023-09-07T05:30:41;3.10;;;2.90;;
11596;SDS011;5854;48.072;16.286;2023-09-07T05:33:14;3.28;;;3.08;;
11596;SDS011;5854;48.072;16.286;2023-09-07T05:35:43;7.93;;;3.47;;
11596;SDS011;5854;48.072;16.286;2023-09-07T05:38:11;6.00;;;3.95;;
11596;SDS011;5854;48.072;16.286;2023-09-07T05:40:39;5.10;;;3.90;;
11596;SDS011;5854;48.072;16.286;2023-09-07T05:43:10;3.63;;;3.20;;
11596;SDS011;5854;48.072;16.286;2023-09-07T05:45:38;3.60;;;3.40;;
11596;SDS011;5854;48.072;16.286;2023-09-07T05:48:07;3.95;;;3.65;;
11596;SDS011;5854;48.072;16.286;2023-09-07T05:50:35;8.77;;;3.80;;
11596;SDS011;5854;48.072;16.286;2023-09-07T05:53:03;4.70;;;4.13;;
11596;SDS011;5854;48.072;16.286;2023-09-07T05:55:31;5.85;;;4.30;;
11596;SDS011;5854;48.072;16.286;2023-09-07T05:57:58;6.30;;;5.07;;
11596;SDS011;5854;48.072;16.286;2023-09-07T06:00:27;5.55;;;5.00;;
11596;SDS011;5854;48.072;16.286;2023-09-07T06:02:54;5.32;;;4.93;;
11596;SDS011;5854;48.072;16.286;2023-09-07T06:05:21;12.88;;;4.32;;
11596;SDS011;5854;48.072;16.286;2023-09-07T06:07:48;10.27;;;4.60;;
11596;SDS011;5854;48.072;16.286;2023-09-07T06:10:15;4.85;;;4.50;;
11596;SDS011;5854;48.072;16.286;2023-09-07T06:12:44;5.72;;;5.03;;
11596;SDS011;5854;48.072;16.286;2023-09-07T06:15:11;6.20;;;5.60;;
11596;SDS011;5854;48.072;16.286;2023-09-07T06:17:40;5.22;;;4.55;;
11596;SDS011;5854;48.072;16.286;2023-09-07T06:20:07;7.72;;;5.47;;
11596;SDS011;5854;48.072;16.286;2023-09-07T06:22:36;10.00;;;4.75;;
11596;SDS011;5854;48.072;16.286;2023-09-07T06:25:03;6.03;;;4.45;;
11596;SDS011;5854;48.072;16.286;2023-09-07T06:27:30;5.43;;;5.03;;
11596;SDS011;5854;48.072;16.286;2023-09-07T06:30:00;5.68;;;4.38;;
11596;SDS011;5854;48.072;16.286;2023-09-07T06:32:34;5.53;;;5.03;;
11596;SDS011;5854;48.072;16.286;2023-09-07T07:01:55;9.52;;;4.32;;
11596;SDS011;5854;48.072;16.286;2023-09-07T07:04:25;5.13;;;4.63;;
11596;SDS011;5854;48.072;16.286;2023-09-07T07:06:58;6.82;;;3.95;;
11596;SDS011;5854;48.072;16.286;2023-09-07T07:09:29;4.60;;;4.10;;
11596;SDS011;5854;48.072;16.286;2023-09-07T07:12:02;4.85;;;4.38;;
11596;SDS011;5854;48.072;16.286;2023-09-07T07:17:03;4.07;;;3.72;;
11596;SDS011;5854;48.072;16.286;2023-09-07T07:22:03;7.03;;;4.40;;
11596;SDS011;5854;48.072;16.286;2023-09-07T07:32:48;4.43;;;3.78;;
11596;SDS011;5854;48.072;16.286;2023-09-07T07:35:25;4.33;;;3.73;;
11596;SDS011;5854;48.072;16.286;2023-09-07T07:38:02;4.05;;;3.75;;
11596;SDS011;5854;48.072;16.286;2023-09-07T07:40:40;5.13;;;3.70;;
11596;SDS011;5854;48.072;16.286;2023-09-07T07:43:22;4.63;;;3.65;;
11596;SDS011;5854;48.072;16.286;2023-09-07T07:45:56;5.95;;;3.70;;
11596;SDS011;5854;48.072;16.286;2023-09-07T08:03:46;7.55;;;2.92;;
11596;SDS011;5854;48.072;16.286;2023-09-07T08:06:13;5.15;;;3.47;;
11596;SDS011;5854;48.072;16.286;2023-09-07T08:08:40;14.45;;;4.80;;
11596;SDS011;5854;48.072;16.286;2023-09-07T08:11:11;4.50;;;3.42;;
11596;SDS011;5854;48.072;16.286;2023-09-07T08:16:09;3.88;;;3.42;;
11596;SDS011;5854;48.072;16.286;2023-09-07T08:18:36;5.47;;;4.05;;
11596;SDS011;5854;48.072;16.286;2023-09-07T08:21:06;4.53;;;4.13;;
11596;SDS011;5854;48.072;16.286;2023-09-07T08:23:33;4.68;;;4.28;;
11596;SDS011;5854;48.072;16.286;2023-09-07T08:26:01;4.65;;;4.10;;
11596;SDS011;5854;48.072;16.286;2023-09-07T08:28:30;4.22;;;3.63;;
11596;SDS011;5854;48.072;16.286;2023-09-07T08:30:57;5.13;;;4.28;;
11596;SDS011;5854;48.072;16.286;2023-09-07T08:33:26;3.88;;;3.58;;
11596;SDS011;5854;48.072;16.286;2023-09-07T08:35:54;5.00;;;4.03;;
11596;SDS011;5854;48.072;16.286;2023-09-07T08:38:24;5.03;;;3.78;;
11596;SDS011;5854;48.072;16.286;2023-09-07T08:40:53;6.43;;;4.07;;
11596;SDS011;5854;48.072;16.286;2023-09-07T08:43:22;3.80;;;3.50;;
11596;SDS011;5854;48.072;16.286;2023-09-07T08:45:55;4.13;;;3.70;;
11596;SDS011;5854;48.072;16.286;2023-09-07T08:48:32;6.97;;;3.72;;
11596;SDS011;5854;48.072;16.286;2023-09-07T08:51:07;3.53;;;3.20;;
11596;SDS011;5854;48.072;16.286;2023-09-07T08:53:38;4.55;;;3.15;;
11596;SDS011;5854;48.072;16.286;2023-09-07T08:56:06;3.67;;;3.38;;
11596;SDS011;5854;48.072;16.286;2023-09-07T08:58:40;4.05;;;3.28;;
11596;SDS011;5854;48.072;16.286;2023-09-07T09:01:09;4.65;;;2.90;;
11596;SDS011;5854;48.072;16.286;2023-09-07T09:03:38;7.47;;;3.58;;
11596;SDS011;5854;48.072;16.286;2023-09-07T09:06:05;5.38;;;3.75;;
11596;SDS011;5854;48.072;16.286;2023-09-07T09:08:44;2.80;;;2.58;;
11596;SDS011;5854;48.072;16.286;2023-09-07T09:11:14;2.45;;;2.25;;
11596;SDS011;5854;48.072;16.286;2023-09-07T09:13:42;2.90;;;2.60;;
11596;SDS011;5854;48.072;16.286;2023-09-07T09:16:19;8.45;;;2.55;;
11596;SDS011;5854;48.072;16.286;2023-09-07T09:18:47;4.30;;;2.60;;
11596;SDS011;5854;48.072;16.286;2023-09-07T09:21:16;3.05;;;2.20;;
11596;SDS011;5854;48.072;16.286;2023-09-07T09:23:47;2.60;;;2.40;;
11596;SDS011;5854;48.072;16.286;2023-09-07T09:26:15;3.23;;;2.17;;
11596;SDS011;5854;48.072;16.286;2023-09-07T09:28:43;8.73;;;2.60;;
11596;SDS011;5854;48.072;16.286;2023-09-07T09:31:11;2.50;;;2.30;;
11596;SDS011;5854;48.072;16.286;2023-09-07T09:33:39;2.42;;;2.20;;
11596;SDS011;5854;48.072;16.286;2023-09-07T09:36:07;3.03;;;2.17;;
11596;SDS011;5854;48.072;16.286;2023-09-07T09:38:35;3.88;;;2.05;;
11596;SDS011;5854;48.072;16.286;2023-09-07T09:41:05;5.72;;;2.15;;
11596;SDS011;5854;48.072;16.286;2023-09-07T09:43:34;2.20;;;2.08;;
11596;SDS011;5854;48.072;16.286;2023-09-07T09:46:01;2.78;;;1.98;;
11596;SDS011;5854;48.072;16.286;2023-09-07T09:48:29;10.27;;;1.83;;
11596;SDS011;5854;48.072;16.286;2023-09-07T09:50:59;4.30;;;1.92;;
11596;SDS011;5854;48.072;16.286;2023-09-07T09:53:27;2.97;;;1.95;;
11596;SDS011;5854;48.072;16.286;2023-09-07T09:55:54;2.20;;;1.88;;
11596;SDS011;5854;48.072;16.286;2023-09-07T09:58:23;2.35;;;2.15;;
11596;SDS011;5854;48.072;16.286;2023-09-07T10:00:51;2.72;;;2.17;;
11596;SDS011;5854;48.072;16.286;2023-09-07T10:03:22;2.67;;;2.13;;
11596;SDS011;5854;48.072;16.286;2023-09-07T10:05:53;1.98;;;1.88;;
11596;SDS011;5854;48.072;16.286;2023-09-07T10:08:20;2.67;;;2.05;;
11596;SDS011;5854;48.072;16.286;2023-09-07T10:10:48;3.38;;;1.60;;
11596;SDS011;5854;48.072;16.286;2023-09-07T10:13:29;5.70;;;1.40;;
11596;SDS011;5854;48.072;16.286;2023-09-07T10:16:01;2.13;;;1.70;;
11596;SDS011;5854;48.072;16.286;2023-09-07T10:18:33;2.60;;;1.75;;
11596;SDS011;5854;48.072;16.286;2023-09-07T10:21:01;2.03;;;1.70;;
11596;SDS011;5854;48.072;16.286;2023-09-07T10:23:35;2.60;;;1.40;;
11596;SDS011;5854;48.072;16.286;2023-09-07T10:26:04;5.10;;;1.30;;
11596;SDS011;5854;48.072;16.286;2023-09-07T10:28:37;2.25;;;1.95;;
11596;SDS011;5854;48.072;16.286;2023-09-07T10:31:05;1.30;;;1.13;;
11596;SDS011;5854;48.072;16.286;2023-09-07T10:33:34;2.30;;;1.23;;
11596;SDS011;5854;48.072;16.286;2023-09-07T10:36:01;2.15;;;1.50;;
11596;SDS011;5854;48.072;16.286;2023-09-07T10:38:30;2.85;;;1.55;;
11596;SDS011;5854;48.072;16.286;2023-09-07T10:40:58;4.53;;;1.40;;
11596;SDS011;5854;48.072;16.286;2023-09-07T10:43:26;4.00;;;1.38;;
11596;SDS011;5854;48.072;16.286;2023-09-07T10:45:55;1.88;;;1.45;;
11596;SDS011;5854;48.072;16.286;2023-09-07T10:48:24;2.83;;;1.10;;
11596;SDS011;5854;48.072;16.286;2023-09-07T10:50:51;1.65;;;1.02;;
11596;SDS011;5854;48.072;16.286;2023-09-07T10:53:25;1.30;;;1.20;;
11596;SDS011;5854;48.072;16.286;2023-09-07T10:55:56;1.23;;;1.00;;
11596;SDS011;5854;48.072;16.286;2023-09-07T10:58:26;2.70;;;1.05;;
11596;SDS011;5854;48.072;16.286;2023-09-07T11:00:58;1.40;;;1.30;;
11596;SDS011;5854;48.072;16.286;2023-09-07T11:03:29;2.33;;;1.88;;
11596;SDS011;5854;48.072;16.286;2023-09-07T11:05:57;2.67;;;0.98;;
11596;SDS011;5854;48.072;16.286;2023-09-07T11:08:28;3.13;;;1.40;;
11596;SDS011;5854;48.072;16.286;2023-09-07T11:10:56;1.92;;;1.50;;
11596;SDS011;5854;48.072;16.286;2023-09-07T11:13:23;1.42;;;1.27;;
11596;SDS011;5854;48.072;16.286;2023-09-07T11:15:53;6.93;;;1.45;;
11596;SDS011;5854;48.072;16.286;2023-09-07T11:18:22;2.20;;;1.52;;
11596;SDS011;5854;48.072;16.286;2023-09-07T11:20:51;1.60;;;1.30;;
11596;SDS011;5854;48.072;16.286;2023-09-07T11:23:19;2.67;;;1.70;;
11596;SDS011;5854;48.072;16.286;2023-09-07T11:25:48;2.20;;;1.20;;
11596;SDS011;5854;48.072;16.286;2023-09-07T11:28:16;2.35;;;1.50;;
11596;SDS011;5854;48.072;16.286;2023-09-07T11:30:50;1.70;;;1.60;;
11596;SDS011;5854;48.072;16.286;2023-09-07T11:33:18;1.52;;;1.00;;
11596;SDS011;5854;48.072;16.286;2023-09-07T11:35:47;1.50;;;1.40;;
11596;SDS011;5854;48.072;16.286;2023-09-07T11:38:15;2.25;;;1.40;;
11596;SDS011;5854;48.072;16.286;2023-09-07T11:40:43;2.33;;;1.35;;
11596;SDS011;5854;48.072;16.286;2023-09-07T11:43:11;1.85;;;1.25;;
11596;SDS011;5854;48.072;16.286;2023-09-07T11:45:39;2.10;;;1.52;;
11596;SDS011;5854;48.072;16.286;2023-09-07T11:48:06;4.60;;;1.35;;
11596;SDS011;5854;48.072;16.286;2023-09-07T11:50:35;3.47;;;1.67;;
11596;SDS011;5854;48.072;16.286;2023-09-07T11:53:04;3.47;;;1.35;;
11596;SDS011;5854;48.072;16.286;2023-09-07T11:55:32;2.40;;;1.85;;
11596;SDS011;5854;48.072;16.286;2023-09-07T11:58:00;6.60;;;1.50;;
11596;SDS011;5854;48.072;16.286;2023-09-07T12:00:27;2.20;;;1.27;;
11596;SDS011;5854;48.072;16.286;2023-09-07T12:02:56;1.58;;;1.30;;
11596;SDS011;5854;48.072;16.286;2023-09-07T12:05:23;2.45;;;1.63;;
11596;SDS011;5854;48.072;16.286;2023-09-07T12:07:50;3.25;;;1.15;;
11596;SDS011;5854;48.072;16.286;2023-09-07T12:10:18;5.88;;;1.30;;
11596;SDS011;5854;48.072;16.286;2023-09-07T12:12:45;1.20;;;1.10;;
11596;SDS011;5854;48.072;16.286;2023-09-07T12:15:12;2.40;;;1.58;;
11596;SDS011;5854;48.072;16.286;2023-09-07T12:17:40;1.48;;;1.27;;
11596;SDS011;5854;48.072;16.286;2023-09-07T12:20:07;2.65;;;1.40;;
11596;SDS011;5854;48.072;16.286;2023-09-07T12:22:36;1.35;;;1.25;;
11596;SDS011;5854;48.072;16.286;2023-09-07T12:25:10;2.70;;;2.10;;
11596;SDS011;5854;48.072;16.286;2023-09-07T12:27:41;1.98;;;1.58;;
11596;SDS011;5854;48.072;16.286;2023-09-07T12:30:11;1.33;;;1.23;;
11596;SDS011;5854;48.072;16.286;2023-09-07T12:32:39;1.88;;;1.40;;
11596;SDS011;5854;48.072;16.286;2023-09-07T12:35:06;2.90;;;1.95;;
11596;SDS011;5854;48.072;16.286;2023-09-07T12:37:34;1.73;;;1.15;;
11596;SDS011;5854;48.072;16.286;2023-09-07T12:40:02;4.03;;;1.77;;
11596;SDS011;5854;48.072;16.286;2023-09-07T12:42:36;2.40;;;1.55;;
11596;SDS011;5854;48.072;16.286;2023-09-07T12:45:08;1.65;;;1.30;;
11596;SDS011;5854;48.072;16.286;2023-09-07T12:47:36;2.67;;;1.25;;
11596;SDS011;5854;48.072;16.286;2023-09-07T12:50:04;1.77;;;1.45;;
11596;SDS011;5854;48.072;16.286;2023-09-07T12:52:32;2.55;;;1.27;;
11596;SDS011;5854;48.072;16.286;2023-09-07T12:55:01;1.40;;;1.17;;
11596;SDS011;5854;48.072;16.286;2023-09-07T12:57:29;2.65;;;1.50;;
11596;SDS011;5854;48.072;16.286;2023-09-07T12:59:56;1.33;;;1.15;;
11596;SDS011;5854;48.072;16.286;2023-09-07T13:02:24;5.88;;;1.40;;
11596;SDS011;5854;48.072;16.286;2023-09-07T13:04:53;1.77;;;1.30;;
11596;SDS011;5854;48.072;16.286;2023-09-07T13:07:20;1.45;;;1.00;;
11596;SDS011;5854;48.072;16.286;2023-09-07T13:09:48;1.88;;;1.70;;
11596;SDS011;5854;48.072;16.286;2023-09-07T13:12:15;2.65;;;1.25;;
11596;SDS011;5854;48.072;16.286;2023-09-07T13:14:42;2.47;;;1.55;;
11596;SDS011;5854;48.072;16.286;2023-09-07T13:17:11;1.60;;;1.23;;
11596;SDS011;5854;48.072;16.286;2023-09-07T13:19:41;4.03;;;1.50;;
11596;SDS011;5854;48.072;16.286;2023-09-07T13:22:09;1.88;;;0.98;;
11596;SDS011;5854;48.072;16.286;2023-09-07T13:24:36;2.30;;;1.23;;
11596;SDS011;5854;48.072;16.286;2023-09-07T13:27:03;2.40;;;1.50;;
11596;SDS011;5854;48.072;16.286;2023-09-07T13:29:30;1.58;;;1.08;;
11596;SDS011;5854;48.072;16.286;2023-09-07T13:31:57;1.95;;;1.65;;
11596;SDS011;5854;48.072;16.286;2023-09-07T13:34:25;4.50;;;2.13;;
11596;SDS011;5854;48.072;16.286;2023-09-07T13:36:53;2.60;;;1.88;;
11596;SDS011;5854;48.072;16.286;2023-09-07T13:39:21;4.00;;;1.50;;
11596;SDS011;5854;48.072;16.286;2023-09-07T13:41:48;1.27;;;1.17;;
11596;SDS011;5854;48.072;16.286;2023-09-07T13:44:16;2.15;;;1.48;;
11596;SDS011;5854;48.072;16.286;2023-09-07T13:46:43;2.22;;;1.80;;
11596;SDS011;5854;48.072;16.286;2023-09-07T13:49:10;2.03;;;1.50;;
11596;SDS011;5854;48.072;16.286;2023-09-07T13:51:39;1.85;;;1.63;;
11596;SDS011;5854;48.072;16.286;2023-09-07T13:54:08;2.28;;;1.42;;
11596;SDS011;5854;48.072;16.286;2023-09-07T13:56:36;6.22;;;1.50;;
11596;SDS011;5854;48.072;16.286;2023-09-07T13:59:03;1.63;;;1.30;;
11596;SDS011;5854;48.072;16.286;2023-09-07T14:01:31;1.70;;;1.48;;
11596;SDS011;5854;48.072;16.286;2023-09-07T14:03:58;1.20;;;1.10;;
11596;SDS011;5854;48.072;16.286;2023-09-07T14:06:25;1.35;;;1.23;;
11596;SDS011;5854;48.072;16.286;2023-09-07T14:08:52;6.15;;;1.20;;
11596;SDS011;5854;48.072;16.286;2023-09-07T14:11:20;3.90;;;1.20;;
11596;SDS011;5854;48.072;16.286;2023-09-07T14:13:48;2.10;;;1.52;;
11596;SDS011;5854;48.072;16.286;2023-09-07T14:16:17;1.75;;;1.40;;
11596;SDS011;5854;48.072;16.286;2023-09-07T14:18:44;1.95;;;1.33;;
11596;SDS011;5854;48.072;16.286;2023-09-07T14:21:12;1.83;;;1.25;;
11596;SDS011;5854;48.072;16.286;2023-09-07T14:23:39;1.58;;;1.40;;
11596;SDS011;5854;48.072;16.286;2023-09-07T14:26:07;1.88;;;1.52;;
11596;SDS011;5854;48.072;16.286;2023-09-07T14:28:36;1.70;;;1.52;;
11596;SDS011;5854;48.072;16.286;2023-09-07T14:31:04;7.75;;;1.50;;
11596;SDS011;5854;48.072;16.286;2023-09-07T14:33:32;1.40;;;1.23;;
11596;SDS011;5854;48.072;16.286;2023-09-07T14:36:03;1.50;;;1.25;;
11596;SDS011;5854;48.072;16.286;2023-09-07T14:38:31;2.28;;;1.00;;
11596;SDS011;5854;48.072;16.286;2023-09-07T14:40:59;4.97;;;1.20;;
11596;SDS011;5854;48.072;16.286;2023-09-07T14:43:26;1.48;;;1.30;;
11596;SDS011;5854;48.072;16.286;2023-09-07T14:45:56;1.70;;;1.40;;
11596;SDS011;5854;48.072;16.286;2023-09-07T14:48:23;3.47;;;1.75;;
11596;SDS011;5854;48.072;16.286;2023-09-07T14:53:29;1.95;;;1.63;;
11596;SDS011;5854;48.072;16.286;2023-09-07T15:01:07;2.28;;;1.45;;
11596;SDS011;5854;48.072;16.286;2023-09-07T15:03:34;1.55;;;1.30;;
11596;SDS011;5854;48.072;16.286;2023-09-07T15:06:05;2.00;;;1.15;;
11596;SDS011;5854;48.072;16.286;2023-09-07T15:08:32;1.33;;;1.17;;
11596;SDS011;5854;48.072;16.286;2023-09-07T15:10:59;2.42;;;1.92;;
11596;SDS011;5854;48.072;16.286;2023-09-07T15:13:26;1.83;;;0.98;;
11596;SDS011;5854;48.072;16.286;2023-09-07T15:15:54;1.27;;;1.17;;
11596;SDS011;5854;48.072;16.286;2023-09-07T15:18:23;1.40;;;1.30;;
11596;SDS011;5854;48.072;16.286;2023-09-07T15:20:58;5.07;;;1.30;;
11596;SDS011;5854;48.072;16.286;2023-09-07T15:23:37;1.50;;;1.20;;
11596;SDS011;5854;48.072;16.286;2023-09-07T15:26:05;3.33;;;1.20;;
11596;SDS011;5854;48.072;16.286;2023-09-07T15:28:32;4.95;;;1.35;;
11596;SDS011;5854;48.072;16.286;2023-09-07T15:30:59;2.22;;;1.58;;
11596;SDS011;5854;48.072;16.286;2023-09-07T15:33:28;5.45;;;1.27;;
11596;SDS011;5854;48.072;16.286;2023-09-07T15:35:55;1.30;;;1.00;;
11596;SDS011;5854;48.072;16.286;2023-09-07T15:38:22;2.28;;;1.50;;
11596;SDS011;5854;48.072;16.286;2023-09-07T15:40:49;1.73;;;1.52;;
11596;SDS011;5854;48.072;16.286;2023-09-07T15:43:16;1.90;;;1.00;;
11596;SDS011;5854;48.072;16.286;2023-09-07T15:45:44;1.75;;;1.38;;
11596;SDS011;5854;48.072;16.286;2023-09-07T15:48:11;2.97;;;1.55;;
11596;SDS011;5854;48.072;16.286;2023-09-07T15:50:40;2.03;;;1.48;;
11596;SDS011;5854;48.072;16.286;2023-09-07T15:53:07;3.60;;;1.50;;
11596;SDS011;5854;48.072;16.286;2023-09-07T15:55:34;1.40;;;1.17;;
11596;SDS011;5854;48.072;16.286;2023-09-07T15:58:01;3.42;;;1.90;;
11596;SDS011;5854;48.072;16.286;2023-09-07T16:00:29;1.70;;;1.60;;
11596;SDS011;5854;48.072;16.286;2023-09-07T16:02:56;1.42;;;1.10;;
11596;SDS011;5854;48.072;16.286;2023-09-07T16:05:23;1.63;;;1.33;;